createdAt,value
2022-11-24T00:01:25.871Z,102.20
2022-11-24T00:03:58.396Z,94.40
2022-11-24T00:06:26.140Z,118.93
2022-11-24T00:08:53.973Z,103.07
2022-11-24T00:11:26.445Z,101.53
2022-11-24T00:13:53.741Z,111.13
2022-11-24T00:16:26.116Z,106.30
2022-11-24T00:18:54.929Z,99.57
2022-11-24T00:21:22.468Z,108.97
2022-11-24T00:23:49.820Z,99.70
2022-11-24T00:26:19.307Z,102.47
2022-11-24T00:28:47.895Z,105.07
2022-11-24T00:31:22.363Z,103.63
2022-11-24T00:33:51.388Z,101.23
2022-11-24T00:36:19.584Z,101.53
2022-11-24T00:38:47.079Z,103.03
2022-11-24T00:41:14.098Z,108.10
2022-11-24T00:43:40.900Z,110.03
2022-11-24T00:46:07.776Z,110.97
2022-11-24T00:48:34.809Z,111.30
2022-11-24T00:51:07.398Z,101.80
2022-11-24T00:53:34.574Z,105.10
2022-11-24T00:56:03.638Z,107.57
2022-11-24T00:58:31.657Z,103.10
2022-11-24T01:01:04.791Z,103.07
2022-11-24T01:03:31.933Z,102.87
2022-11-24T01:06:20.753Z,106.27
2022-11-24T01:08:48.583Z,108.43
2022-11-24T01:11:23.802Z,105.07
2022-11-24T01:13:54.031Z,102.80
2022-11-24T01:16:35.192Z,104.03
2022-11-24T01:19:03.712Z,114.27
2022-11-24T01:21:30.386Z,107.70
2022-11-24T01:23:57.797Z,101.63
2022-11-24T01:26:24.582Z,121.07
2022-11-24T01:28:56.291Z,112.90
2022-11-24T01:31:24.077Z,110.83
2022-11-24T01:33:51.156Z,118.10
2022-11-24T01:36:18.054Z,119.40
2022-11-24T01:38:45.646Z,123.40
2022-11-24T01:41:18.275Z,122.77
2022-11-24T01:43:46.048Z,118.10
2022-11-24T01:46:38.632Z,125.97
2022-11-24T01:49:36.367Z,120.77
2022-11-24T01:52:13.156Z,117.80
2022-11-24T01:54:48.785Z,124.33
2022-11-24T01:57:25.022Z,119.90
2022-11-24T01:59:56.711Z,114.50
2022-11-24T02:02:24.961Z,110.77
2022-11-24T02:04:52.692Z,118.33
2022-11-24T02:07:19.761Z,118.43
2022-11-24T02:09:54.078Z,115.60
2022-11-24T02:12:26.520Z,113.03
2022-11-24T02:14:54.761Z,109.53
2022-11-24T02:17:21.829Z,103.10
2022-11-24T02:19:57.444Z,107.67
2022-11-24T02:22:51.301Z,113.10
2022-11-24T02:25:34.504Z,104.17
2022-11-24T02:28:05.612Z,97.17
2022-11-24T02:30:32.533Z,107.43
2022-11-24T02:32:59.839Z,104.23
2022-11-24T02:35:28.002Z,95.60
2022-11-24T02:37:54.717Z,104.17
2022-11-24T02:40:25.547Z,97.07
2022-11-24T02:42:56.329Z,95.77
2022-11-24T02:45:24.702Z,96.63
2022-11-24T02:47:51.396Z,107.00
2022-11-24T02:50:18.125Z,96.23
2022-11-24T02:52:44.838Z,88.90
2022-11-24T02:55:11.715Z,87.20
2022-11-24T02:57:38.429Z,91.63
2022-11-24T03:00:05.590Z,87.67
2022-11-24T03:02:32.547Z,98.13
2022-11-24T03:04:59.420Z,91.90
2022-11-24T03:07:26.197Z,93.53
2022-11-24T03:09:52.982Z,94.33
2022-11-24T03:12:19.672Z,87.77
2022-11-24T03:14:46.508Z,89.17
2022-11-24T03:17:13.256Z,88.43
2022-11-24T03:19:40.009Z,93.87
2022-11-24T03:22:06.736Z,94.43
2022-11-24T03:24:33.709Z,90.87
2022-11-24T03:27:00.793Z,104.37
2022-11-24T03:29:27.539Z,100.97
2022-11-24T03:31:54.265Z,97.37
2022-11-24T03:34:20.925Z,98.23
2022-11-24T03:36:47.711Z,100.07
2022-11-24T03:39:14.488Z,95.97
2022-11-24T03:41:41.264Z,88.23
2022-11-24T03:44:07.981Z,103.80
2022-11-24T03:46:34.705Z,82.00
2022-11-24T03:49:01.723Z,95.00
2022-11-24T03:51:28.458Z,93.63
2022-11-24T03:53:55.116Z,91.57
2022-11-24T03:56:21.811Z,91.70
2022-11-24T03:58:48.527Z,82.07
2022-11-24T04:01:15.891Z,88.47
2022-11-24T04:03:42.913Z,86.60
2022-11-24T04:06:09.783Z,94.20
2022-11-24T04:08:36.507Z,85.00
2022-11-24T04:11:03.414Z,102.00
2022-11-24T04:13:30.106Z,93.97
2022-11-24T04:15:56.861Z,87.90
2022-11-24T04:18:23.614Z,91.30
2022-11-24T04:20:51.529Z,94.50
2022-11-24T04:23:18.838Z,90.63
2022-11-24T04:25:45.511Z,88.30
2022-11-24T04:28:12.267Z,81.37
2022-11-24T04:30:40.233Z,83.60
2022-11-24T04:33:06.938Z,87.77
2022-11-24T04:35:33.619Z,86.67
2022-11-24T04:38:03.051Z,88.03
2022-11-24T04:40:30.205Z,90.43
2022-11-24T04:42:57.768Z,84.10
2022-11-24T04:45:24.552Z,89.80
2022-11-24T04:47:51.350Z,79.13
2022-11-24T04:50:18.415Z,82.60
2022-11-24T04:52:45.437Z,86.13
2022-11-24T04:55:12.501Z,80.33
2022-11-24T04:57:39.449Z,82.80
2022-11-24T05:00:08.135Z,87.83
2022-11-24T05:02:34.971Z,85.97
2022-11-24T05:05:01.687Z,92.67
2022-11-24T05:07:28.396Z,96.93
2022-11-24T05:10:13.815Z,95.33
2022-11-24T05:12:40.490Z,94.63
2022-11-24T05:15:07.937Z,89.60
2022-11-24T05:17:39.215Z,85.03
2022-11-24T05:20:07.262Z,94.50
2022-11-24T05:22:34.131Z,84.93
2022-11-24T05:25:01.753Z,87.37
2022-11-24T05:27:28.520Z,80.33
2022-11-24T05:29:55.416Z,85.90
2022-11-24T05:32:22.209Z,82.40
2022-11-24T05:34:48.925Z,84.63
2022-11-24T05:37:15.718Z,88.23
2022-11-24T05:39:42.505Z,88.17
2022-11-24T05:42:28.102Z,94.03
2022-11-24T05:44:54.953Z,87.97
2022-11-24T05:47:21.857Z,85.80
2022-11-24T05:49:48.619Z,90.00
2022-11-24T05:52:16.254Z,81.20
2022-11-24T05:54:43.495Z,87.47
2022-11-24T05:57:10.240Z,88.10
2022-11-24T05:59:36.985Z,87.23
2022-11-24T06:02:03.748Z,88.47
2022-11-24T06:04:30.503Z,89.40
2022-11-24T06:06:57.242Z,91.40
2022-11-24T06:09:23.926Z,84.80
2022-11-24T06:11:50.606Z,78.97
2022-11-24T06:14:17.252Z,81.20
2022-11-24T06:16:44.126Z,84.80
2022-11-24T06:19:11.219Z,92.10
2022-11-24T06:21:40.750Z,87.17
2022-11-24T06:24:08.026Z,92.37
2022-11-24T06:26:34.770Z,88.87
2022-11-24T06:29:01.482Z,97.73
2022-11-24T06:31:28.186Z,102.17
2022-11-24T06:33:54.876Z,98.27
2022-11-24T06:36:21.545Z,100.77
2022-11-24T06:38:48.262Z,102.27
2022-11-24T06:41:16.017Z,99.97
2022-11-24T06:43:43.118Z,106.53
2022-11-24T06:46:10.378Z,109.40
2022-11-24T06:48:37.374Z,101.47
2022-11-24T06:51:06.697Z,110.13
2022-11-24T06:53:38.370Z,96.70
2022-11-24T06:56:12.185Z,106.30
2022-11-24T06:58:47.064Z,100.73
2022-11-24T07:01:27.169Z,109.20
2022-11-24T07:03:55.467Z,116.50
2022-11-24T07:06:24.425Z,94.70
2022-11-24T07:08:51.208Z,100.27
2022-11-24T07:11:21.081Z,91.73
2022-11-24T07:13:48.709Z,98.77
2022-11-24T07:16:17.515Z,101.70
2022-11-24T07:18:45.793Z,100.37
2022-11-24T07:21:12.700Z,106.73
2022-11-24T07:23:39.480Z,108.13
2022-11-24T07:26:07.902Z,107.40
2022-11-24T07:28:36.561Z,110.23
2022-11-24T07:31:07.407Z,109.27
2022-11-24T07:33:34.913Z,102.00
2022-11-24T07:36:03.299Z,115.90
2022-11-24T07:38:31.580Z,111.73
2022-11-24T07:41:06.855Z,112.63
2022-11-24T07:43:35.368Z,110.13
2022-11-24T07:46:02.639Z,116.37
2022-11-24T07:48:29.767Z,114.03
2022-11-24T07:50:59.401Z,114.60
2022-11-24T07:53:26.424Z,115.83
2022-11-24T07:55:59.783Z,114.23
2022-11-24T07:58:32.609Z,122.17
2022-11-24T08:01:00.381Z,120.50
2022-11-24T08:03:27.524Z,120.93
2022-11-24T08:08:46.247Z,130.40
2022-11-24T08:11:18.087Z,132.07
2022-11-24T08:13:44.983Z,140.33
2022-11-24T08:16:15.017Z,133.03
2022-11-24T08:18:42.363Z,126.63
2022-11-24T08:21:13.471Z,131.07
2022-11-24T08:23:40.714Z,132.97
2022-11-24T08:26:11.050Z,131.00
2022-11-24T08:28:38.266Z,129.43
2022-11-24T08:31:07.612Z,122.93
2022-11-24T08:33:34.745Z,126.60
2022-11-24T08:36:05.350Z,120.67
2022-11-24T08:38:32.109Z,120.77
2022-11-24T08:41:11.157Z,130.27
2022-11-24T08:43:37.949Z,113.93
2022-11-24T08:46:08.365Z,109.83
2022-11-24T08:48:35.914Z,116.03
2022-11-24T08:51:14.905Z,126.37
2022-11-24T08:53:42.469Z,123.53
2022-11-24T08:56:10.293Z,121.67
2022-11-24T08:58:37.787Z,129.97
2022-11-24T09:01:12.302Z,118.57
2022-11-24T09:03:42.291Z,120.07
2022-11-24T09:06:13.199Z,127.43
2022-11-24T09:08:39.956Z,120.60
2022-11-24T09:11:09.405Z,119.63
2022-11-24T09:13:36.984Z,114.83
2022-11-24T09:16:12.815Z,113.47
2022-11-24T09:18:39.967Z,112.10
2022-11-24T09:21:21.121Z,109.43
2022-11-24T09:23:49.692Z,119.40
2022-11-24T09:26:22.620Z,116.87
2022-11-24T09:28:50.142Z,118.07
2022-11-24T09:31:18.023Z,109.93
2022-11-24T09:33:45.193Z,118.07
2022-11-24T09:36:12.292Z,94.63
2022-11-24T09:38:39.111Z,101.17
2022-11-24T09:41:18.425Z,97.20
2022-11-24T09:44:22.599Z,107.43
2022-11-24T09:47:06.415Z,101.80
2022-11-24T09:49:51.057Z,96.30
2022-11-24T09:52:29.191Z,100.20
2022-11-24T09:55:01.514Z,89.73
2022-11-24T09:57:35.813Z,100.50
2022-11-24T10:00:13.441Z,108.97
2022-11-24T10:02:40.176Z,104.13
2022-11-24T10:05:07.621Z,112.83
2022-11-24T10:07:44.261Z,109.13
2022-11-24T10:10:32.770Z,96.73
2022-11-24T10:13:36.144Z,100.70
2022-11-24T10:16:21.081Z,100.67
2022-11-24T10:19:34.469Z,101.53
2022-11-24T10:22:09.321Z,100.83
2022-11-24T10:24:57.595Z,106.20
2022-11-24T10:27:33.392Z,114.57
2022-11-24T10:30:01.336Z,108.20
2022-11-24T10:32:37.821Z,109.93
2022-11-24T10:35:24.420Z,101.97
2022-11-24T10:38:06.397Z,110.70
2022-11-24T10:40:59.778Z,108.60
2022-11-24T10:43:28.270Z,105.17
2022-11-24T10:46:22.898Z,104.23
2022-11-24T10:48:58.598Z,109.87
2022-11-24T10:51:43.909Z,109.17
2022-11-24T10:54:18.264Z,119.60
2022-11-24T10:56:47.067Z,105.73
2022-11-24T10:59:21.505Z,113.43
2022-11-24T11:01:48.530Z,114.63
2022-11-24T11:04:30.487Z,112.03
2022-11-24T11:07:19.387Z,113.83
2022-11-24T11:09:47.515Z,109.47
2022-11-24T11:12:42.685Z,113.23
2022-11-24T11:15:31.221Z,116.33
2022-11-24T11:18:01.424Z,111.60
2022-11-24T11:20:33.965Z,121.40
2022-11-24T11:23:21.313Z,107.83
2022-11-24T11:25:48.503Z,128.87
2022-11-24T11:28:29.615Z,126.53
2022-11-24T11:31:18.022Z,112.90
2022-11-24T11:34:06.257Z,104.53
2022-11-24T11:36:41.307Z,109.23
2022-11-24T11:39:21.634Z,103.47
2022-11-24T11:41:58.707Z,107.50
2022-11-24T11:44:47.000Z,116.60
2022-11-24T11:47:43.182Z,124.53
2022-11-24T11:50:14.863Z,115.50
2022-11-24T11:53:00.387Z,120.40
2022-11-24T11:55:50.392Z,118.73
2022-11-24T11:58:55.045Z,120.23
2022-11-24T12:01:45.649Z,114.93
2022-11-24T12:04:42.061Z,116.93
2022-11-24T12:07:08.781Z,125.77
2022-11-24T12:10:02.870Z,112.77
2022-11-24T12:13:02.777Z,117.40
2022-11-24T12:15:47.218Z,122.63
2022-11-24T12:18:57.494Z,120.97
2022-11-24T12:21:36.100Z,120.40
2022-11-24T12:24:23.849Z,121.63
2022-11-24T12:27:00.855Z,113.50
2022-11-24T12:29:45.553Z,130.83
2022-11-24T12:32:41.860Z,113.03
2022-11-24T12:35:23.897Z,107.63
2022-11-24T12:38:02.601Z,118.77
2022-11-24T12:40:32.239Z,122.23
2022-11-24T12:43:17.037Z,126.13
2022-11-24T12:46:13.946Z,123.43
2022-11-24T12:49:17.114Z,121.03
2022-11-24T12:51:48.832Z,112.30
2022-11-24T12:54:20.456Z,136.23
2022-11-24T12:56:57.764Z,116.17
2022-11-24T12:59:39.241Z,127.47
2022-11-24T13:02:15.735Z,136.33
2022-11-24T13:05:01.425Z,143.77
2022-11-24T13:07:49.136Z,143.70
2022-11-24T13:13:14.036Z,136.47
2022-11-24T13:19:15.043Z,133.73
2022-11-24T13:21:42.895Z,120.40
2022-11-24T13:24:19.869Z,129.67
2022-11-24T13:26:53.477Z,117.40
2022-11-24T13:29:39.570Z,110.23
2022-11-24T13:32:06.190Z,115.50
2022-11-24T13:34:38.884Z,123.60
2022-11-24T13:37:31.377Z,122.10
2022-11-24T13:40:18.123Z,131.50
2022-11-24T13:43:03.042Z,128.20
2022-11-24T13:45:42.120Z,127.57
2022-11-24T13:48:21.965Z,135.57
2022-11-24T13:50:58.280Z,144.43
2022-11-24T13:53:58.006Z,134.80
2022-11-24T13:56:28.179Z,137.87
2022-11-24T13:59:14.523Z,126.57
2022-11-24T14:01:43.603Z,140.30
2022-11-24T14:04:31.814Z,144.73
2022-11-24T14:07:09.397Z,147.77
2022-11-24T14:09:36.483Z,125.87
2022-11-24T14:12:15.520Z,132.77
2022-11-24T14:14:44.465Z,152.43
2022-11-24T14:17:11.100Z,146.70
2022-11-24T14:19:37.805Z,150.47
2022-11-24T14:22:04.832Z,150.23
2022-11-24T14:24:41.684Z,149.10
2022-11-24T14:27:17.325Z,132.67
2022-11-24T14:30:08.080Z,136.23
2022-11-24T14:32:38.000Z,143.83
2022-11-24T14:35:27.967Z,155.70
2022-11-24T14:37:55.071Z,174.67
2022-11-24T14:40:39.238Z,164.27
2022-11-24T14:43:15.767Z,161.27
2022-11-24T14:46:00.810Z,167.80
2022-11-24T14:48:36.177Z,163.00
2022-11-24T14:51:20.711Z,153.77
2022-11-24T14:53:51.223Z,142.93
2022-11-24T14:56:27.219Z,146.57
2022-11-24T14:58:55.317Z,177.63
2022-11-24T15:01:36.223Z,166.43
2022-11-24T15:05:01.635Z,145.73
2022-11-24T15:07:23.099Z,151.07
2022-11-24T15:09:53.752Z,174.00
2022-11-24T15:12:40.816Z,169.87
2022-11-24T15:15:13.271Z,168.73
2022-11-24T15:17:58.507Z,230.27
2022-11-24T15:20:35.135Z,243.50
2022-11-24T15:23:30.130Z,199.10
2022-11-24T15:26:03.046Z,194.40
2022-11-24T15:28:31.315Z,179.63
2022-11-24T15:31:12.085Z,245.73
2022-11-24T15:33:39.744Z,225.40
2022-11-24T15:36:06.876Z,223.70
2022-11-24T15:38:33.565Z,221.60
2022-11-24T15:41:01.242Z,210.87
2022-11-24T15:43:29.964Z,191.23
2022-11-24T15:45:57.543Z,157.73
2022-11-24T15:48:24.652Z,163.53
2022-11-24T15:50:52.692Z,163.13
2022-11-24T15:53:32.700Z,168.17
2022-11-24T15:56:01.623Z,176.07
2022-11-24T15:58:28.368Z,174.40
2022-11-24T16:00:55.142Z,175.07
2022-11-24T16:03:46.543Z,170.67
2022-11-24T16:06:16.737Z,153.03
2022-11-24T16:08:46.443Z,146.33
2022-11-24T16:11:13.262Z,147.60
2022-11-24T16:13:40.120Z,160.93
2022-11-24T16:16:07.441Z,157.03
2022-11-24T16:18:35.422Z,165.30
2022-11-24T16:21:02.119Z,149.70
2022-11-24T16:23:28.886Z,145.97
2022-11-24T16:25:55.822Z,176.77
2022-11-24T16:28:22.772Z,164.47
2022-11-24T16:30:50.219Z,157.33
2022-11-24T16:33:17.662Z,164.50
2022-11-24T16:35:48.503Z,164.40
2022-11-24T16:38:19.589Z,169.80
2022-11-24T16:40:56.420Z,184.47
2022-11-24T16:43:24.491Z,188.97
2022-11-24T16:46:21.131Z,190.07
2022-11-24T16:48:50.104Z,191.77
2022-11-24T16:51:18.781Z,192.67
2022-11-24T16:53:45.462Z,190.47
2022-11-24T16:56:13.246Z,178.43
2022-11-24T16:58:41.223Z,167.00
2022-11-24T17:01:10.693Z,171.33
2022-11-24T17:03:38.325Z,174.60
2022-11-24T17:06:06.916Z,180.47
2022-11-24T17:08:35.454Z,189.00
2022-11-24T17:11:15.580Z,196.80
2022-11-24T17:13:43.217Z,226.33
2022-11-24T17:16:12.257Z,216.47
2022-11-24T17:18:39.157Z,201.10
2022-11-24T17:21:09.828Z,191.80
2022-11-24T17:23:37.344Z,178.77
2022-11-24T17:26:15.312Z,179.50
2022-11-24T17:28:42.630Z,190.40
2022-11-24T17:31:19.759Z,174.33
2022-11-24T17:33:46.473Z,176.87
2022-11-24T17:36:13.607Z,171.87
2022-11-24T17:38:40.380Z,175.90
2022-11-24T17:41:07.029Z,164.87
2022-11-24T17:43:34.140Z,182.77
2022-11-24T17:46:02.228Z,167.07
2022-11-24T17:48:30.582Z,173.20
2022-11-24T17:51:09.716Z,163.80
2022-11-24T17:53:37.355Z,175.27
2022-11-24T17:56:05.478Z,170.47
2022-11-24T17:58:38.305Z,181.07
2022-11-24T18:01:06.975Z,200.13
2022-11-24T18:03:33.710Z,188.93
2022-11-24T18:06:07.852Z,187.20
2022-11-24T18:08:39.076Z,195.43
2022-11-24T18:11:12.326Z,188.23
2022-11-24T18:13:59.917Z,171.90
2022-11-24T18:16:28.151Z,164.77
2022-11-24T18:19:07.764Z,160.13
2022-11-24T18:21:40.070Z,149.80
2022-11-24T18:24:11.051Z,146.03
2022-11-24T18:26:39.318Z,142.20
2022-11-24T18:29:06.125Z,144.80
2022-11-24T18:31:35.532Z,157.23
2022-11-24T18:34:04.160Z,164.17
2022-11-24T18:36:31.377Z,155.67
2022-11-24T18:39:04.934Z,161.80
2022-11-24T18:41:32.027Z,172.20
2022-11-24T18:44:02.263Z,197.13
2022-11-24T18:46:29.197Z,204.43
2022-11-24T18:48:55.906Z,172.50
2022-11-24T18:51:23.603Z,191.03
2022-11-24T18:54:04.658Z,180.77
2022-11-24T18:56:31.452Z,152.10
2022-11-24T18:58:58.792Z,160.07
2022-11-24T19:01:29.087Z,168.57
2022-11-24T19:03:58.482Z,170.73
2022-11-24T19:06:34.052Z,160.47
2022-11-24T19:09:20.671Z,180.20
2022-11-24T19:11:48.586Z,175.03
2022-11-24T19:14:17.825Z,165.37
2022-11-24T19:16:46.334Z,151.67
2022-11-24T19:19:13.047Z,160.80
2022-11-24T19:21:40.591Z,149.17
2022-11-24T19:24:13.260Z,156.17
2022-11-24T19:26:40.262Z,157.17
2022-11-24T19:29:08.607Z,157.23
2022-11-24T19:31:35.928Z,172.43
2022-11-24T19:34:03.599Z,202.33
2022-11-24T19:36:30.873Z,201.00
2022-11-24T19:39:00.322Z,181.30
2022-11-24T19:41:30.177Z,194.80
2022-11-24T19:43:59.045Z,204.03
2022-11-24T19:46:27.596Z,262.53
2022-11-24T19:48:57.863Z,230.20
2022-11-24T19:51:33.351Z,212.43
2022-11-24T19:54:04.638Z,203.57
2022-11-24T19:56:34.813Z,191.30
2022-11-24T19:59:04.151Z,170.83
2022-11-24T20:01:33.731Z,170.87
2022-11-24T20:04:03.211Z,165.77
2022-11-24T20:06:33.039Z,165.13
2022-11-24T20:09:00.717Z,174.13
2022-11-24T20:11:28.644Z,172.47
2022-11-24T20:13:56.177Z,156.80
2022-11-24T20:16:26.741Z,195.03
2022-11-24T20:18:55.924Z,221.27
2022-11-24T20:21:28.705Z,233.83
2022-11-24T20:24:07.143Z,240.00
2022-11-24T20:26:36.979Z,202.70
2022-11-24T20:29:05.177Z,208.83
2022-11-24T20:31:35.259Z,193.77
2022-11-24T20:34:03.840Z,187.53
2022-11-24T20:36:32.956Z,178.43
2022-11-24T20:39:04.000Z,168.80
2022-11-24T20:41:33.850Z,171.57
2022-11-24T20:44:04.982Z,182.93
2022-11-24T20:46:34.420Z,177.97
2022-11-24T20:49:03.419Z,209.83
2022-11-24T20:51:36.272Z,200.13
2022-11-24T20:54:06.523Z,208.77
2022-11-24T20:56:36.918Z,203.57
2022-11-24T20:59:04.569Z,192.60
2022-11-24T21:01:40.602Z,169.03
2022-11-24T21:04:09.637Z,168.43
2022-11-24T21:06:36.633Z,159.33
2022-11-24T21:09:04.929Z,172.93
2022-11-24T21:11:32.400Z,179.23
2022-11-24T21:13:59.654Z,222.37
2022-11-24T21:16:34.749Z,213.43
2022-11-24T21:19:04.480Z,238.17
2022-11-24T21:21:34.504Z,237.90
2022-11-24T21:24:11.355Z,207.30
2022-11-24T21:26:39.283Z,176.10
2022-11-24T21:29:06.838Z,182.60
2022-11-24T21:31:38.398Z,180.97
2022-11-24T21:34:06.406Z,174.40
2022-11-24T21:36:35.073Z,172.47
2022-11-24T21:39:03.192Z,165.23
2022-11-24T21:41:32.964Z,177.33
2022-11-24T21:43:59.806Z,174.23
2022-11-24T21:46:28.028Z,183.93
2022-11-24T21:48:54.697Z,179.33
2022-11-24T21:51:21.444Z,184.13
2022-11-24T21:53:49.091Z,162.20
2022-11-24T21:56:20.835Z,167.90
2022-11-24T21:58:55.867Z,180.03
2022-11-24T22:01:25.352Z,175.10
2022-11-24T22:03:52.024Z,166.10
2022-11-24T22:06:20.242Z,160.67
2022-11-24T22:08:48.232Z,174.90
2022-11-24T22:11:21.046Z,171.93
2022-11-24T22:13:47.827Z,154.27
2022-11-24T22:16:17.392Z,168.17
2022-11-24T22:18:45.496Z,177.73
2022-11-24T22:21:14.597Z,188.13
2022-11-24T22:23:41.762Z,182.37
2022-11-24T22:26:12.785Z,166.07
2022-11-24T22:28:40.144Z,193.00
2022-11-24T22:31:13.219Z,188.57
2022-11-24T22:33:40.329Z,179.00
2022-11-24T22:36:07.641Z,172.50
2022-11-24T22:38:35.925Z,179.80
2022-11-24T22:41:05.276Z,190.70
2022-11-24T22:43:33.845Z,213.80
2022-11-24T22:46:18.182Z,211.13
2022-11-24T22:48:46.342Z,199.40
2022-11-24T22:51:15.550Z,197.47
2022-11-24T22:53:46.556Z,207.23
2022-11-24T22:56:13.387Z,186.07
2022-11-24T22:58:40.698Z,202.77
2022-11-24T23:01:10.509Z,205.30
2022-11-24T23:03:37.495Z,193.23
2022-11-24T23:06:06.613Z,194.10
2022-11-24T23:08:35.384Z,192.40
2022-11-24T23:11:08.340Z,228.17
2022-11-24T23:13:35.712Z,210.37
2022-11-24T23:16:03.917Z,190.87
2022-11-24T23:18:31.168Z,180.77
2022-11-24T23:21:24.235Z,206.57
2022-11-24T23:23:52.798Z,193.97
2022-11-24T23:26:25.746Z,205.50
2022-11-24T23:28:52.488Z,212.47
2022-11-24T23:31:22.143Z,248.93
2022-11-24T23:33:48.857Z,185.80
2022-11-24T23:36:20.205Z,193.20
2022-11-24T23:38:47.718Z,237.80
2022-11-24T23:41:17.551Z,196.80
2022-11-24T23:43:44.645Z,215.17
2022-11-24T23:46:16.484Z,241.87
2022-11-24T23:48:44.275Z,202.77
2022-11-24T23:51:14.646Z,206.43
2022-11-24T23:53:42.554Z,239.07
2022-11-24T23:56:15.578Z,166.60
2022-11-24T23:58:42.523Z,262.67
